Time;durP1;ratioP1;P1;durP2;ratioP2;P2;SDS_P1;SDS_P2;PMS_P1;PMS_P2;Temp;Humidity;BMP_temperature;BMP_pressure;BME280_temperature;BME280_humidity;BME280_pressure;Samples;Min_cycle;Max_cycle;Signal;HPM_P1;HPM_P2
2022/09/24 00:02:56;;;;;;;40.00;24.02;;;;;;;4.63;96.51;99186.39;4320551;80;21011;-82
2022/09/24 00:08:57;;;;;;;35.20;23.00;;;;;;;4.54;96.28;99186.98;4314052;80;21870;-82
2022/09/24 00:14:59;;;;;;;43.05;24.32;;;;;;;4.46;96.37;99175.64;4320573;80;20995;-82
2022/09/24 00:21:02;;;;;;;44.33;25.80;;;;;;;4.44;96.54;99176.56;4327808;80;21453;-82
2022/09/24 00:27:05;;;;;;;43.20;24.57;;;;;;;4.42;96.59;99177.44;4310517;80;21048;-82
2022/09/24 00:33:07;;;;;;;45.50;25.35;;;;;;;4.32;96.11;99171.63;4328243;80;21896;-81
2022/09/24 00:39:08;;;;;;;43.15;25.32;;;;;;;4.20;96.10;99169.62;4312302;80;21039;-82
2022/09/24 00:45:10;;;;;;;40.55;22.82;;;;;;;4.15;96.71;99171.16;4318503;80;21039;-82
2022/09/24 00:51:16;;;;;;;38.50;21.73;;;;;;;4.17;96.93;99168.92;4324745;80;21008;-82
2022/09/24 00:57:17;;;;;;;42.67;24.18;;;;;;;4.34;98.46;99169.36;4322943;80;21384;-82
2022/09/24 01:03:22;;;;;;;44.20;23.42;;;;;;;4.48;98.53;99162.56;4307294;80;21024;-82
2022/09/24 01:09:26;;;;;;;39.78;22.00;;;;;;;4.41;97.41;99149.31;4325502;80;20952;-81
2022/09/24 01:15:33;;;;;;;40.60;22.35;;;;;;;4.25;97.18;99139.63;4306669;80;20992;-82
2022/09/24 01:21:55;;;;;;;32.17;20.37;;;;;;;4.14;97.38;99141.13;4283463;80;21895;-81
2022/09/24 01:28:28;;;;;;;34.85;20.97;;;;;;;4.09;97.60;99129.12;4316362;80;21065;-83
2022/09/24 01:34:47;;;;;;;34.15;21.33;;;;;;;4.01;97.62;99130.55;4333001;80;21476;-82
2022/09/24 01:40:50;;;;;;;32.40;20.57;;;;;;;3.92;97.34;99120.31;4331915;80;21001;-82
2022/09/24 01:46:53;;;;;;;33.28;21.68;;;;;;;3.89;98.05;99128.55;4314443;80;21045;-82
2022/09/24 01:53:05;;;;;;;34.55;20.40;;;;;;;3.89;97.66;99127.74;4331520;80;21445;-82
2022/09/24 01:59:24;;;;;;;32.60;20.45;;;;;;;3.80;97.52;99119.69;4324043;81;21588;-82
2022/09/24 02:05:57;;;;;;;35.83;20.72;;;;;;;3.80;98.03;99126.45;4308406;81;21011;-82
2022/09/24 02:12:23;;;;;;;32.90;20.08;;;;;;;3.72;97.54;99122.42;4295609;81;21620;-82
2022/09/24 02:18:29;;;;;;;29.63;18.35;;;;;;;3.64;97.51;99118.64;4326843;81;21596;-82
2022/09/24 02:24:44;;;;;;;34.58;20.30;;;;;;;3.64;98.29;99125.41;4319796;81;21618;-82
2022/09/24 02:30:51;;;;;;;31.02;18.32;;;;;;;3.57;97.45;99129.75;4318748;81;21051;-81
2022/09/24 02:37:01;;;;;;;31.07;19.30;;;;;;;3.40;97.61;99121.72;4332309;80;21009;-82
2022/09/24 02:43:02;;;;;;;33.23;19.02;;;;;;;3.32;97.58;99120.60;4331979;81;21056;-82
2022/09/24 02:49:04;;;;;;;35.25;19.23;;;;;;;3.27;97.63;99105.12;4336006;80;20993;-82
2022/09/24 02:55:07;;;;;;;36.60;19.10;;;;;;;3.21;97.71;99105.88;4334692;81;21880;-82
2022/09/24 03:01:08;;;;;;;37.13;20.50;;;;;;;3.16;97.67;99095.22;4320883;81;21051;-82
2022/09/24 03:07:13;;;;;;;37.23;22.50;;;;;;;3.12;97.81;99098.33;4336968;80;21575;-82
2022/09/24 03:13:13;;;;;;;31.93;19.77;;;;;;;3.09;97.89;99093.56;4328136;81;21016;-83
2022/09/24 03:19:14;;;;;;;30.77;18.75;;;;;;;3.09;98.06;99093.56;4332755;81;21013;-82
2022/09/24 03:25:15;;;;;;;31.77;19.87;;;;;;;3.18;99.23;99096.47;4334823;80;20973;-81
2022/09/24 03:31:17;;;;;;;28.15;18.30;;;;;;;3.30;99.36;99095.80;4286741;81;21038;-81
2022/09/24 03:37:19;;;;;;;32.23;18.57;;;;;;;3.32;98.86;99088.72;4234496;82;21048;-81
2022/09/24 03:43:21;;;;;;;30.68;19.42;;;;;;;3.19;98.28;99083.17;4229903;82;22462;-82
2022/09/24 03:49:23;;;;;;;31.25;18.95;;;;;;;3.14;98.40;99083.38;4242460;82;21036;-81
2022/09/24 03:55:24;;;;;;;34.53;19.48;;;;;;;3.11;98.73;99086.73;4219996;82;21937;-81
2022/09/24 04:01:26;;;;;;;29.60;19.07;;;;;;;3.14;98.90;99082.57;4235950;82;20968;-81
2022/09/24 04:07:28;;;;;;;30.08;18.45;;;;;;;3.13;99.03;99089.88;4154534;84;21079;-81
2022/09/24 04:13:29;;;;;;;44.83;20.82;;;;;;;3.13;99.16;99084.47;4159815;84;21016;-82
2022/09/24 04:19:31;;;;;;;47.10;23.05;;;;;;;3.18;99.34;99082.14;4231479;82;21548;-82
2022/09/24 04:25:33;;;;;;;38.98;21.37;;;;;;;3.18;99.66;99078.09;4211567;82;21882;-82
2022/09/24 04:31:34;;;;;;;51.15;22.95;;;;;;;3.26;100.00;99081.91;4226558;82;20991;-82
2022/09/24 04:37:36;;;;;;;38.53;22.32;;;;;;;3.25;100.00;99075.69;4170568;83;20996;-81
2022/09/24 04:43:38;;;;;;;39.15;22.50;;;;;;;3.27;100.00;99073.46;4217056;83;22369;-81
2022/09/24 04:49:44;;;;;;;38.55;21.65;;;;;;;3.34;100.00;99075.63;4197795;82;22134;-81
2022/09/24 04:55:44;;;;;;;37.65;21.50;;;;;;;3.46;100.00;99083.30;4300405;80;20990;-81
2022/09/24 05:01:46;;;;;;;39.45;23.32;;;;;;;3.56;100.00;99084.84;4296519;81;21043;-81
2022/09/24 05:07:48;;;;;;;34.15;19.55;;;;;;;3.69;100.00;99072.99;4318633;81;20981;-81
2022/09/24 05:13:49;;;;;;;36.95;20.77;;;;;;;3.79;100.00;99068.56;4330028;81;21063;-81
2022/09/24 05:19:51;;;;;;;35.15;20.30;;;;;;;3.74;100.00;99057.92;4326718;81;21107;-82
2022/09/24 05:32:16;;;;;;;33.35;19.95;;;;;;;3.68;100.00;99054.59;4246739;82;21034;-82
2022/09/24 05:38:17;;;;;;;38.98;22.25;;;;;;;3.82;100.00;99054.37;4188721;83;21017;-81
2022/09/24 05:44:20;;;;;;;36.48;21.93;;;;;;;3.96;100.00;99055.67;4259326;82;21011;-82
2022/09/24 05:50:22;;;;;;;41.33;24.18;;;;;;;4.11;100.00;99065.14;4257720;82;21070;-82
2022/09/24 05:56:24;;;;;;;33.90;22.05;;;;;;;4.27;100.00;99053.94;4246830;82;20996;-82
2022/09/24 06:02:25;;;;;;;31.37;21.00;;;;;;;4.59;100.00;99059.92;4338859;82;20956;-82
2022/09/24 06:08:29;;;;;;;33.08;21.05;;;;;;;4.92;100.00;99052.56;4245487;82;21707;-82
2022/09/24 06:14:31;;;;;;;34.23;20.40;;;;;;;5.17;100.00;99061.55;4244986;82;22196;-83
2022/09/24 06:20:33;;;;;;;38.15;24.92;;;;;;;5.36;100.00;99065.29;4208633;82;21077;-84
2022/09/24 06:26:35;;;;;;;38.85;25.27;;;;;;;5.60;100.00;99068.57;4249595;82;21597;-83
2022/09/24 06:32:36;;;;;;;38.28;24.40;;;;;;;5.94;100.00;99070.83;4250141;82;21086;-83
2022/09/24 06:38:40;;;;;;;35.88;24.75;;;;;;;6.23;100.00;99065.88;4254613;82;21023;-82
2022/09/24 06:44:42;;;;;;;40.80;25.17;;;;;;;6.44;100.00;99068.42;4242817;82;20999;-83
2022/09/24 06:50:44;;;;;;;39.65;24.82;;;;;;;6.67;100.00;99072.77;4256175;82;21792;-82
2022/09/24 06:56:46;;;;;;;36.15;22.95;;;;;;;6.85;100.00;99071.30;4248712;82;21015;-83
2022/09/24 07:02:50;;;;;;;33.88;22.90;;;;;;;7.01;100.00;99075.65;4186789;83;21040;-82
2022/09/24 07:08:52;;;;;;;31.37;21.93;;;;;;;7.20;100.00;99077.13;4240413;82;21658;-82
2022/09/24 07:14:53;;;;;;;32.33;21.42;;;;;;;7.39;100.00;99077.78;4247917;82;20999;-82
2022/09/24 07:20:55;;;;;;;32.70;21.80;;;;;;;7.59;100.00;99074.79;4242375;82;20987;-82
2022/09/24 07:26:56;;;;;;;32.25;21.80;;;;;;;7.80;100.00;99081.28;4197313;83;21020;-82
2022/09/24 07:32:58;;;;;;;29.63;21.42;;;;;;;8.09;100.00;99085.45;4183243;83;21444;-82
2022/09/24 07:39:01;;;;;;;26.40;18.37;;;;;;;8.35;100.00;99081.00;4247025;82;21110;-82
2022/09/24 07:45:03;;;;;;;26.68;18.10;;;;;;;8.59;100.00;99082.09;4252836;82;21039;-82
2022/09/24 07:51:11;;;;;;;22.75;16.50;;;;;;;8.82;100.00;99082.94;4181888;83;21063;-82
2022/09/24 07:57:12;;;;;;;22.20;15.20;;;;;;;8.98;100.00;99094.56;4250983;82;21526;-83
2022/09/24 08:03:14;;;;;;;20.80;14.95;;;;;;;9.17;100.00;99087.70;4254870;82;21035;-82
2022/09/24 08:09:20;;;;;;;20.30;15.05;;;;;;;9.43;100.00;99089.13;4260811;82;21011;-82
2022/09/24 08:15:21;;;;;;;20.43;15.10;;;;;;;9.77;100.00;99085.98;4255425;82;21008;-84
2022/09/24 08:21:22;;;;;;;19.23;14.75;;;;;;;9.99;100.00;99088.45;4254017;82;20991;-82
2022/09/24 08:27:24;;;;;;;21.82;14.83;;;;;;;10.23;100.00;99087.46;4254162;82;21038;-83
2022/09/24 08:33:27;;;;;;;19.82;14.00;;;;;;;10.54;100.00;99086.32;4253446;82;21066;-81
2022/09/24 08:39:28;;;;;;;15.63;11.90;;;;;;;10.73;100.00;99085.56;4242464;82;21519;-82
2022/09/24 08:58:33;;;;;;;13.38;9.85;;;;;;;11.73;100.00;99076.59;4678261;74;22889;-83
2022/09/24 09:04:43;;;;;;;16.12;10.60;;;;;;;12.06;100.00;99081.92;4589507;75;21917;-82
2022/09/24 09:10:45;;;;;;;14.23;9.53;;;;;;;12.31;100.00;99077.94;4591732;75;21683;-84
2022/09/24 09:17:04;;;;;;;11.65;8.70;;;;;;;12.56;100.00;99065.92;4594371;75;20983;-82
2022/09/24 09:23:17;;;;;;;13.32;7.95;;;;;;;12.89;100.00;99059.36;4587666;75;21412;-82
2022/09/24 09:29:20;;;;;;;9.05;7.25;;;;;;;13.31;99.48;99058.09;4569238;75;20936;-83
2022/09/24 09:35:37;;;;;;;10.65;7.00;;;;;;;13.72;98.04;99055.75;4584372;75;21479;-82
2022/09/24 09:41:53;;;;;;;9.50;6.53;;;;;;;14.06;97.85;99041.77;4562501;75;21463;-82
2022/09/24 09:47:56;;;;;;;7.85;5.53;;;;;;;14.40;96.93;99038.75;4565958;75;20971;-82
2022/09/24 09:54:01;;;;;;;9.98;5.72;;;;;;;14.43;95.84;99037.16;4568941;75;20946;-82
2022/09/24 10:00:04;;;;;;;8.23;5.72;;;;;;;14.50;95.43;99029.64;4580028;75;20952;-82
2022/09/24 10:06:12;;;;;;;8.95;4.97;;;;;;;14.47;93.61;99017.29;4590965;75;21008;-82
2022/09/24 10:12:21;;;;;;;7.17;5.07;;;;;;;14.48;93.77;99014.13;4535856;76;21050;-83
2022/09/24 10:18:43;;;;;;;6.42;4.03;;;;;;;14.53;92.21;99010.97;4536636;76;20995;-83
2022/09/24 10:24:44;;;;;;;5.80;3.85;;;;;;;14.71;92.22;99015.79;4533470;76;20989;-83
2022/09/24 10:30:51;;;;;;;6.33;4.03;;;;;;;14.84;90.97;99006.47;4523957;76;21003;-82
2022/09/24 10:36:59;;;;;;;;;;;;;;;14.95;90.40;99005.23;4544390;76;21027;-82
2022/09/24 10:43:03;;;;;;;4.15;3.30;;;;;;;14.99;87.67;99007.36;4540804;76;20565;-82
2022/09/24 10:49:23;;;;;;;4.67;2.92;;;;;;;14.95;87.67;99007.19;4532888;76;21026;-82
2022/09/24 10:55:54;;;;;;;5.83;3.47;;;;;;;14.94;86.95;98998.74;4283171;76;10000477;-82
2022/09/24 11:02:04;;;;;;;4.65;3.00;;;;;;;14.98;85.76;99000.28;4551454;76;21476;-82
2022/09/24 11:08:36;;;;;;;3.92;2.67;;;;;;;15.09;85.30;98997.45;4524518;76;21037;-82
2022/09/24 11:15:13;;;;;;;3.75;2.50;;;;;;;15.06;84.34;99002.39;4563920;76;21024;-83
2022/09/24 11:21:38;;;;;;;4.30;2.92;;;;;;;15.10;83.73;99001.77;4557765;76;21004;-83
2022/09/24 11:28:08;;;;;;;4.05;2.95;;;;;;;15.15;83.40;98997.20;4555422;76;20927;-83
2022/09/24 11:34:30;;;;;;;4.20;2.72;;;;;;;15.17;80.30;98990.11;4542533;76;21774;-82
2022/09/24 11:40:59;;;;;;;4.75;2.27;;;;;;;15.24;80.72;98974.09;4543970;76;21605;-83
2022/09/24 11:47:26;;;;;;;4.05;2.52;;;;;;;15.45;78.66;98976.71;4554312;76;20982;-82
2022/09/24 11:53:59;;;;;;;2.67;1.70;;;;;;;15.52;77.62;98968.36;4543674;76;21638;-83
2022/09/24 12:00:15;;;;;;;2.00;1.60;;;;;;;15.72;76.16;98970.75;4475634;76;21493;-82
2022/09/24 12:06:29;;;;;;;2.00;1.57;;;;;;;16.05;76.05;98967.25;4412020;76;20928;-83
2022/09/24 12:12:37;;;;;;;2.87;1.90;;;;;;;16.25;75.27;98970.16;4467665;78;21026;-83
2022/09/24 12:19:25;;;;;;;2.60;1.70;;;;;;;16.25;73.60;98967.40;4521875;78;21009;-83
2022/09/24 12:25:43;;;;;;;2.42;1.92;;;;;;;16.16;73.46;98960.22;4484333;78;20968;-83
2022/09/24 12:38:37;;;;;;;1.80;1.50;;;;;;;16.21;72.67;98959.15;4501326;78;21003;-83
2022/09/24 12:44:53;;;;;;;2.20;1.52;;;;;;;16.07;71.26;98952.41;4503208;78;21510;-83
2022/09/24 12:50:58;;;;;;;6.57;1.70;;;;;;;15.97;71.30;98953.92;4484500;78;20995;-82
2022/09/24 12:57:20;;;;;;;3.67;2.10;;;;;;;15.84;71.30;98944.00;4491803;77;21019;-82
2022/09/24 13:03:35;;;;;;;3.95;2.27;;;;;;;15.74;71.40;98935.84;4606893;76;21029;-83
2022/09/24 13:09:39;;;;;;;7.62;2.15;;;;;;;15.71;71.46;98933.91;4557740;76;21480;-83
2022/09/24 13:15:42;;;;;;;4.85;2.33;;;;;;;15.71;70.93;98933.29;4553362;76;21052;-83
2022/09/24 13:21:49;;;;;;;4.83;1.80;;;;;;;15.74;71.12;98924.19;4548391;76;21082;-82
2022/09/24 13:28:05;;;;;;;2.77;1.70;;;;;;;15.72;70.57;98916.94;4533251;76;20980;-83
2022/09/24 13:34:18;;;;;;;2.02;1.57;;;;;;;15.64;70.27;98918.20;4544182;76;20991;-83
2022/09/24 13:40:25;;;;;;;3.52;2.15;;;;;;;15.52;70.38;98902.94;4552755;76;21539;-82
2022/09/24 13:46:27;;;;;;;3.55;1.90;;;;;;;15.56;70.49;98896.80;4559024;76;21422;-82
2022/09/24 13:52:52;;;;;;;4.53;1.50;;;;;;;15.54;69.96;98889.52;4544669;76;21393;-83
2022/09/24 13:59:05;;;;;;;2.83;1.90;;;;;;;15.49;69.75;98884.45;4536195;76;20975;-82
2022/09/24 14:05:17;;;;;;;4.50;2.22;;;;;;;15.46;69.83;98885.27;4568287;77;21495;-83
2022/09/24 14:11:25;;;;;;;5.30;2.60;;;;;;;15.49;69.77;98887.20;4567639;76;20962;-82
2022/09/24 14:17:27;;;;;;;3.65;2.67;;;;;;;15.50;69.72;98865.31;4535881;77;21511;-82
2022/09/24 14:23:33;;;;;;;5.95;2.52;;;;;;;15.46;69.63;98869.30;4532648;76;21507;-82
2022/09/24 14:29:43;;;;;;;3.08;2.25;;;;;;;15.43;69.65;98866.78;4581158;76;20953;-83
2022/09/24 14:35:48;;;;;;;5.40;2.98;;;;;;;15.48;67.99;98864.96;4562977;76;20966;-82
2022/09/24 14:41:51;;;;;;;4.05;2.55;;;;;;;15.53;69.23;98872.00;4538720;76;20994;-82
2022/09/24 14:48:02;;;;;;;3.65;2.50;;;;;;;15.57;69.21;98864.45;4555738;76;20967;-83
2022/09/24 14:54:32;;;;;;;4.72;2.70;;;;;;;15.60;69.37;98853.98;4535051;76;20972;-83
2022/09/24 15:00:47;;;;;;;6.47;3.05;;;;;;;15.66;69.35;98866.13;4541046;76;20971;-82
2022/09/24 15:06:48;;;;;;;6.33;3.12;;;;;;;15.61;69.57;98867.98;4551773;76;20950;-82
2022/09/24 15:12:51;;;;;;;4.75;3.30;;;;;;;15.51;69.51;98867.48;4491370;76;20983;-82
2022/09/24 15:19:19;;;;;;;4.15;2.72;;;;;;;15.44;69.78;98866.95;4557443;76;20991;-82
2022/09/24 15:25:20;;;;;;;4.05;2.83;;;;;;;15.32;69.51;98863.91;4535029;76;20918;-82
2022/09/24 15:31:23;;;;;;;7.92;4.25;;;;;;;15.18;68.52;98856.56;4555582;76;21827;-82
2022/09/24 15:37:27;;;;;;;6.47;4.05;;;;;;;15.08;68.98;98861.56;4544904;76;20973;-82
2022/09/24 15:43:28;;;;;;;4.20;3.12;;;;;;;14.95;69.20;98857.77;4551730;76;21011;-82
2022/09/24 15:49:30;;;;;;;4.17;2.98;;;;;;;14.79;69.43;98861.62;4557631;76;20997;-82
2022/09/24 15:55:35;;;;;;;5.72;4.10;;;;;;;14.57;69.49;98857.47;4578638;75;21011;-82
2022/09/24 16:01:37;;;;;;;8.00;4.20;;;;;;;14.28;69.86;98841.53;4683065;76;20929;-81
2022/09/24 16:07:38;;;;;;;8.80;5.65;;;;;;;14.14;70.45;98846.51;4564802;76;20936;-82
2022/09/24 16:13:39;;;;;;;15.45;8.75;;;;;;;14.00;70.50;98847.34;4650333;76;21015;-82
2022/09/24 16:19:41;;;;;;;15.15;9.75;;;;;;;13.84;70.75;98846.26;4547088;76;20932;-81
2022/09/24 16:25:56;;;;;;;10.53;7.17;;;;;;;13.63;71.16;98854.00;4552412;76;21001;-82
2022/09/24 16:32:00;;;;;;;9.58;6.40;;;;;;;13.45;71.56;98853.86;4402880;79;21929;-82
2022/09/24 16:38:02;;;;;;;12.18;7.25;;;;;;;13.24;72.49;98862.94;4508188;77;20970;-82
2022/09/24 16:44:03;;;;;;;11.45;7.30;;;;;;;13.05;72.98;98863.92;4511566;77;20926;-82
2022/09/24 16:50:06;;;;;;;17.80;10.60;;;;;;;12.85;74.16;98855.28;4524700;77;20930;-83
2022/09/24 16:56:12;;;;;;;29.87;17.42;;;;;;;12.72;74.93;98849.22;4521840;77;20998;-82
2022/09/24 17:02:13;;;;;;;32.00;18.20;;;;;;;12.56;76.06;98847.62;4519284;77;21009;-82
2022/09/24 17:08:15;;;;;;;30.60;16.65;;;;;;;12.30;76.67;98857.59;4517848;77;21427;-81
2022/09/24 17:14:17;;;;;;;33.90;18.23;;;;;;;12.07;77.34;98858.52;4511835;77;21008;-81
2022/09/24 17:20:18;;;;;;;30.97;16.70;;;;;;;11.98;78.53;98859.45;4520673;77;20996;-82
2022/09/24 17:26:21;;;;;;;52.95;27.02;;;;;;;11.89;79.57;98861.78;4512324;77;21015;-82
2022/09/24 17:32:23;;;;;;;58.50;32.70;;;;;;;11.85;80.12;98868.43;4516518;77;21517;-82
2022/09/24 17:38:24;;;;;;;59.48;33.45;;;;;;;11.81;80.44;98875.84;4514684;77;20965;-82
2022/09/24 17:44:25;;;;;;;54.77;33.10;;;;;;;11.76;80.98;98879.74;4530423;77;20922;-82
2022/09/24 17:50:28;;;;;;;61.30;37.40;;;;;;;11.72;81.60;98882.27;4515126;77;20976;-82
2022/09/24 17:56:32;;;;;;;65.52;35.40;;;;;;;11.65;81.96;98876.77;4519858;77;21600;-82
2022/09/24 18:02:33;;;;;;;59.23;34.70;;;;;;;11.60;82.47;98868.88;4509801;77;20963;-81
2022/09/24 18:08:36;;;;;;;59.48;32.85;;;;;;;11.45;82.89;98874.09;4515405;76;21010;-82
2022/09/24 18:14:38;;;;;;;46.18;28.10;;;;;;;11.31;83.13;98876.75;4533147;77;20964;-81
2022/09/24 18:20:40;;;;;;;53.48;30.95;;;;;;;11.07;84.00;98878.16;4499428;77;21549;-82
2022/09/24 18:26:42;;;;;;;55.03;31.73;;;;;;;10.89;83.99;98882.70;4525385;77;21911;-81
2022/09/24 18:32:44;;;;;;;53.25;31.33;;;;;;;10.82;84.83;98879.31;4532580;77;20949;-82
2022/09/24 18:38:46;;;;;;;59.93;35.25;;;;;;;10.67;85.09;98880.37;4404831;77;10000264;-82
2022/09/24 18:44:49;;;;;;;68.20;37.95;;;;;;;10.57;85.64;98878.31;4526714;77;20964;-81
2022/09/24 18:50:51;;;;;;;59.73;36.70;;;;;;;10.47;86.02;98891.33;4522395;77;20977;-81
2022/09/24 18:56:52;;;;;;;54.73;33.75;;;;;;;10.39;86.37;98891.62;4514939;76;21585;-82
2022/09/24 19:02:56;;;;;;;46.88;28.12;;;;;;;10.33;86.72;98893.13;4464521;78;21453;-81
2022/09/24 19:08:57;;;;;;;39.85;25.88;;;;;;;10.17;86.93;98893.36;4481720;77;21459;-81
2022/09/24 19:14:59;;;;;;;37.35;24.80;;;;;;;9.96;87.28;98898.54;4514032;78;20954;-82
2022/09/24 19:21:02;;;;;;;43.10;27.27;;;;;;;9.83;87.96;98906.80;4521847;78;21556;-81
2022/09/24 19:27:03;;;;;;;42.50;26.73;;;;;;;9.76;88.32;98903.16;4486929;78;21423;-81
2022/09/24 19:33:07;;;;;;;52.98;32.20;;;;;;;9.69;88.67;98909.35;4484892;77;21355;-81
2022/09/24 19:39:11;;;;;;;61.37;35.23;;;;;;;9.63;89.16;98909.47;4356183;78;9999673;-81
2022/09/24 19:45:12;;;;;;;72.45;39.05;;;;;;;9.56;89.29;98905.27;4472288;76;21327;-81
2022/09/24 19:51:20;;;;;;;73.78;38.25;;;;;;;9.36;89.34;98902.45;4468990;78;20935;-83
2022/09/24 19:57:21;;;;;;;160.60;67.78;;;;;;;9.24;90.21;98905.38;4461242;77;21466;-81
2022/09/24 20:03:24;;;;;;;170.32;72.90;;;;;;;9.25;90.52;98907.77;4466277;78;21391;-82
2022/09/24 20:09:26;;;;;;;178.25;75.83;;;;;;;9.24;90.48;98921.19;4480640;78;21560;-81
2022/09/24 20:15:28;;;;;;;156.57;69.15;;;;;;;9.15;90.71;98917.14;4478625;78;20978;-81
2022/09/24 20:21:37;;;;;;;171.82;70.00;;;;;;;9.05;90.82;98919.15;4501501;77;20995;-81
2022/09/24 20:27:50;;;;;;;133.00;60.73;;;;;;;8.96;90.93;98915.30;4387070;79;21483;-81
2022/09/24 20:33:52;;;;;;;97.17;48.55;;;;;;;8.89;91.17;98908.94;4375010;79;21884;-81
2022/09/24 20:39:53;;;;;;;84.62;39.90;;;;;;;8.78;91.40;98910.14;4233122;79;9999861;-81
2022/09/24 20:45:55;;;;;;;74.65;38.55;;;;;;;8.57;91.15;98913.05;4349203;79;20935;-81
2022/09/24 20:51:56;;;;;;;55.58;35.00;;;;;;;8.40;91.70;98910.23;4374761;79;20980;-81
2022/09/24 20:57:57;;;;;;;93.67;50.52;;;;;;;8.33;92.23;98907.96;4358280;79;21031;-80
2022/09/24 21:04:01;;;;;;;120.33;62.08;;;;;;;8.28;92.15;98909.61;4291050;79;21825;-83
2022/09/24 21:10:03;;;;;;;94.07;51.05;;;;;;;8.18;92.43;98905.50;4271062;79;20998;-81
2022/09/24 21:16:05;;;;;;;100.60;53.33;;;;;;;8.12;92.74;98909.67;4306220;81;21007;-82
2022/09/24 21:22:06;;;;;;;81.45;43.23;;;;;;;8.02;93.18;98912.20;4291230;80;21020;-81
2022/09/24 21:28:08;;;;;;;52.55;32.70;;;;;;;7.96;93.08;98904.31;4310785;79;21031;-81
2022/09/24 21:34:13;;;;;;;46.85;28.83;;;;;;;7.91;93.38;98898.34;4316372;80;21828;-81
2022/09/24 21:40:15;;;;;;;43.58;25.27;;;;;;;7.86;93.55;98898.66;4296857;80;20979;-81
2022/09/24 21:46:16;;;;;;;38.25;25.08;;;;;;;7.75;93.43;98893.56;4328823;80;20986;-81
2022/09/24 21:52:17;;;;;;;40.92;24.90;;;;;;;7.65;93.75;98903.09;4301258;81;20987;-81
2022/09/24 21:58:19;;;;;;;40.80;23.52;;;;;;;7.54;93.73;98902.08;4368867;77;20998;-81
2022/09/24 22:04:21;;;;;;;39.25;23.05;;;;;;;7.50;93.96;98901.79;4460130;77;21035;-81
2022/09/24 22:10:24;;;;;;;32.05;20.72;;;;;;;7.39;94.07;98897.45;4456607;78;20984;-81
2022/09/24 22:16:27;;;;;;;32.50;20.62;;;;;;;7.30;94.16;98891.98;4444333;77;21524;-81
2022/09/24 22:22:28;;;;;;;29.48;18.20;;;;;;;7.23;94.34;98896.72;4441743;77;21949;-81
2022/09/24 22:28:30;;;;;;;28.32;18.25;;;;;;;7.13;94.66;98894.54;4447749;77;21015;-81
2022/09/24 22:40:51;;;;;;;31.90;19.77;;;;;;;7.00;94.66;98897.73;4375396;79;21809;-81
2022/09/24 22:46:53;;;;;;;35.92;21.45;;;;;;;6.92;95.21;98897.34;4454965;78;20967;-80
2022/09/24 22:52:55;;;;;;;35.03;21.37;;;;;;;6.93;95.38;98888.02;4419552;78;21910;-80
2022/09/24 22:58:59;;;;;;;40.10;24.43;;;;;;;6.92;95.94;98888.59;4405821;77;21013;-81
2022/09/24 23:05:02;;;;;;;41.00;24.65;;;;;;;6.92;95.74;98890.54;4420298;78;21899;-81
2022/09/24 23:11:13;;;;;;;43.83;27.60;;;;;;;6.89;96.11;98896.09;4395318;78;21820;-81
2022/09/24 23:17:15;;;;;;;37.15;22.87;;;;;;;6.80;96.05;98896.06;4391830;78;21490;-81
2022/09/24 23:23:16;;;;;;;34.75;22.73;;;;;;;6.71;96.31;98900.34;4374821;79;21123;-81
2022/09/24 23:29:18;;;;;;;38.90;22.77;;;;;;;6.74;96.63;98898.27;4398467;79;20990;-81
2022/09/24 23:35:20;;;;;;;38.42;25.40;;;;;;;6.70;96.59;98894.69;4379753;79;20944;-83
2022/09/24 23:41:21;;;;;;;45.67;28.83;;;;;;;6.63;96.41;98891.78;4431628;77;20943;-81
2022/09/24 23:47:23;;;;;;;46.42;26.07;;;;;;;6.56;97.14;98891.62;4516152;77;20992;-81
2022/09/24 23:53:25;;;;;;;42.03;23.38;;;;;;;6.64;97.75;98894.70;4391601;79;20975;-81
2022/09/24 23:59:27;;;;;;;32.83;21.25;;;;;;;6.67;97.68;98888.56;4374367;79;20946;-81
